KOGA/OGA METAR and TAF weather

Enter ICAO airport designator
Station Type Date Time Source
KOGA METAR 2021/05/17 22:35 UTC NOAA

KOGA 172235Z AUTO 12009G15KT 10SM BKN006 OVC012 15/14 A2999 RMK AO2 T01520139


Station Type Date Time Source
KOGA Decoded METAR 2021/05/17 22:35 UTC NOAA

Ogallala, Searle Field Airport, NE, United States (KOGA) 41-07-11N 101-46-08W
May 17, 2021 - 06:35 PM EDT / 2021.05.17 2235 UTC
Wind: from the ESE (120 degrees) at 10 MPH (9 KT) gusting to 17 MPH (15 KT):0
Visibility: 10 mile(s):0
Sky conditions: overcast
Temperature: 59.4 F (15.2 C)
Dew Point: 57.0 F (13.9 C)
Relative Humidity: 91%
Pressure (altimeter): 29.99 in. Hg (1015 hPa)
ob: KOGA 172235Z AUTO 12009G15KT 10SM BKN006 OVC012 15/14 A2999 RMK AO2 T01520139
cycle: 22

Station Type Date Time Source
KOGA TAF UTC NOAA

Error!

Example: see airport list